createdAt,value
2019-03-17T00:00:55.822Z,11.10
2019-03-17T00:06:01.308Z,11.20
2019-03-17T00:11:06.816Z,11.20
2019-03-17T00:16:12.281Z,11.30
2019-03-17T00:21:17.800Z,11.30
2019-03-17T00:26:23.300Z,11.40
2019-03-17T00:31:28.931Z,11.40
2019-03-17T00:36:34.415Z,11.50
2019-03-17T00:41:39.881Z,11.50
2019-03-17T00:46:45.371Z,11.50
2019-03-17T00:51:50.855Z,11.50
2019-03-17T00:56:56.335Z,11.50
2019-03-17T01:02:01.794Z,11.50
2019-03-17T01:07:07.352Z,11.60
2019-03-17T01:12:12.919Z,11.50
2019-03-17T01:17:18.406Z,11.50
2019-03-17T01:22:23.924Z,11.50
2019-03-17T01:27:29.370Z,11.60
2019-03-17T01:32:34.900Z,11.60
2019-03-17T01:37:40.388Z,11.60
2019-03-17T01:42:45.930Z,11.60
2019-03-17T01:47:51.491Z,11.60
2019-03-17T01:52:57.052Z,11.50
2019-03-17T01:58:02.601Z,11.50
2019-03-17T02:03:08.155Z,11.50
2019-03-17T02:08:13.652Z,11.40
2019-03-17T02:13:19.212Z,11.30
2019-03-17T02:18:24.771Z,11.10
2019-03-17T02:23:30.267Z,11.00
2019-03-17T02:28:35.744Z,11.00
2019-03-17T02:33:41.234Z,11.00
2019-03-17T02:38:46.722Z,11.10
2019-03-17T02:43:52.282Z,11.10
2019-03-17T02:48:57.898Z,11.20
2019-03-17T02:54:03.580Z,11.20
2019-03-17T02:59:09.130Z,11.30
2019-03-17T03:04:14.641Z,11.30
2019-03-17T03:09:20.158Z,11.30
2019-03-17T03:14:25.777Z,11.30
2019-03-17T03:19:31.249Z,11.30
2019-03-17T03:24:36.736Z,11.30
2019-03-17T03:29:42.303Z,11.30
2019-03-17T03:34:47.808Z,11.30
2019-03-17T03:39:53.326Z,11.20
2019-03-17T03:44:58.843Z,11.00
2019-03-17T03:50:04.484Z,10.90
2019-03-17T03:55:09.962Z,10.80
2019-03-17T04:00:15.525Z,10.80
2019-03-17T04:05:21.051Z,10.80
2019-03-17T04:10:26.494Z,10.90
2019-03-17T04:15:31.967Z,11.00
2019-03-17T04:20:37.529Z,11.00
2019-03-17T04:25:43.014Z,11.00
2019-03-17T04:30:48.483Z,11.00
2019-03-17T04:35:54.092Z,11.00
2019-03-17T04:40:59.694Z,11.00
2019-03-17T04:46:05.225Z,11.00
2019-03-17T04:51:10.729Z,11.00
2019-03-17T04:56:16.208Z,11.00
2019-03-17T05:01:21.733Z,11.00
2019-03-17T05:06:27.237Z,11.00
2019-03-17T05:11:32.727Z,10.90
2019-03-17T05:16:38.211Z,10.90
2019-03-17T05:21:43.699Z,10.90
2019-03-17T05:26:49.186Z,10.90
2019-03-17T05:31:54.743Z,10.90
2019-03-17T05:37:06.287Z,10.90
2019-03-17T05:42:07.506Z,10.90
2019-03-17T05:47:12.978Z,10.90
2019-03-17T05:52:18.447Z,10.80
2019-03-17T05:57:24.005Z,10.80
2019-03-17T06:02:29.528Z,10.80
2019-03-17T06:07:35.063Z,10.80
2019-03-17T06:12:40.598Z,10.80
2019-03-17T06:17:46.178Z,10.70
2019-03-17T06:22:51.657Z,10.70
2019-03-17T06:27:57.217Z,10.60
2019-03-17T06:33:02.860Z,10.60
2019-03-17T06:38:08.444Z,10.50
2019-03-17T06:43:14.061Z,10.40
2019-03-17T06:48:19.735Z,10.40
2019-03-17T06:53:25.337Z,10.30
2019-03-17T06:58:30.867Z,10.30
2019-03-17T07:03:36.373Z,10.30
2019-03-17T07:08:41.885Z,10.30
2019-03-17T07:13:47.416Z,10.30
2019-03-17T07:18:53.224Z,10.30
2019-03-17T07:23:58.723Z,10.20
2019-03-17T07:29:04.231Z,10.10
2019-03-17T07:34:09.732Z,10.10
2019-03-17T07:39:15.214Z,10.20
2019-03-17T07:44:20.823Z,10.20
2019-03-17T07:49:26.407Z,10.20
2019-03-17T07:54:34.864Z,10.10
2019-03-17T07:59:39.129Z,10.00
2019-03-17T08:04:46.182Z,10.00
2019-03-17T08:09:51.859Z,10.10
2019-03-17T08:14:57.908Z,10.30
2019-03-17T08:20:03.503Z,10.30
2019-03-17T08:25:09.027Z,10.30
2019-03-17T08:30:14.496Z,10.20
2019-03-17T08:35:19.976Z,10.30
2019-03-17T08:40:25.594Z,10.30
2019-03-17T08:45:31.107Z,10.30
2019-03-17T08:50:36.998Z,10.50
2019-03-17T08:55:42.503Z,10.60
2019-03-17T09:00:48.034Z,10.90
2019-03-17T09:05:53.721Z,11.20
2019-03-17T09:10:59.258Z,11.50
2019-03-17T09:16:04.835Z,11.50
2019-03-17T09:21:10.364Z,11.50
2019-03-17T09:26:15.850Z,11.50
2019-03-17T09:31:21.334Z,11.40
2019-03-17T09:36:26.959Z,11.40
2019-03-17T09:41:32.434Z,11.40
2019-03-17T09:46:37.978Z,11.70
2019-03-17T09:51:43.497Z,12.30
2019-03-17T09:56:49.145Z,13.30
2019-03-17T10:01:54.697Z,14.50
2019-03-17T10:07:00.297Z,15.40
2019-03-17T10:12:05.993Z,15.50
2019-03-17T10:17:11.521Z,15.00
2019-03-17T10:22:17.169Z,14.90
2019-03-17T10:27:24.499Z,14.70
2019-03-17T10:32:37.393Z,14.30
2019-03-17T10:37:44.011Z,13.90
2019-03-17T10:42:49.529Z,13.50
2019-03-17T10:47:55.061Z,13.30
2019-03-17T10:53:00.590Z,13.20
2019-03-17T10:58:09.514Z,13.20
2019-03-17T11:03:15.007Z,13.40
2019-03-17T11:08:20.473Z,13.60
2019-03-17T11:13:26.310Z,13.80
2019-03-17T11:18:31.786Z,14.20
2019-03-17T11:23:37.381Z,14.30
2019-03-17T11:28:42.999Z,14.70
2019-03-17T11:33:48.828Z,14.60
2019-03-17T11:38:54.332Z,14.10
2019-03-17T11:43:59.828Z,13.80
2019-03-17T11:49:05.393Z,14.00
2019-03-17T11:54:10.910Z,14.20
2019-03-17T11:59:16.451Z,14.40
2019-03-17T12:04:22.200Z,14.10
2019-03-17T12:09:29.310Z,13.70
2019-03-17T12:14:34.731Z,13.30
2019-03-17T12:19:40.288Z,12.90
2019-03-17T12:24:45.922Z,12.70
2019-03-17T12:29:51.423Z,12.60
2019-03-17T12:34:57.098Z,12.50
2019-03-17T12:40:03.392Z,12.40
2019-03-17T12:45:09.356Z,12.50
2019-03-17T12:50:15.125Z,12.50
2019-03-17T12:55:20.590Z,12.50
2019-03-17T13:00:26.148Z,12.70
2019-03-17T13:05:31.726Z,12.70
2019-03-17T13:10:37.253Z,12.60
2019-03-17T13:15:42.718Z,12.70
2019-03-17T13:20:48.234Z,12.70
2019-03-17T13:25:53.751Z,12.50
2019-03-17T13:30:59.365Z,12.10
2019-03-17T13:36:04.882Z,11.80
2019-03-17T13:41:10.443Z,11.70
2019-03-17T13:46:15.988Z,11.70
2019-03-17T13:51:21.492Z,11.70
2019-03-17T13:56:27.073Z,11.80
2019-03-17T14:01:32.615Z,12.00
2019-03-17T14:06:38.203Z,12.10
2019-03-17T14:11:43.731Z,12.20
2019-03-17T14:16:49.322Z,12.30
2019-03-17T14:21:54.815Z,12.30
2019-03-17T14:27:00.347Z,12.40
2019-03-17T14:32:05.961Z,12.40
2019-03-17T14:37:11.535Z,12.20
2019-03-17T14:42:17.055Z,11.90
2019-03-17T14:47:22.578Z,11.80
2019-03-17T14:52:28.098Z,11.90
2019-03-17T14:57:33.709Z,11.90
2019-03-17T15:02:39.228Z,12.00
2019-03-17T15:07:47.105Z,11.90
2019-03-17T15:12:52.593Z,11.70
2019-03-17T15:17:58.151Z,11.50
2019-03-17T15:23:03.783Z,11.10
2019-03-17T15:28:09.431Z,10.40
2019-03-17T15:33:14.871Z,9.80
2019-03-17T15:38:20.480Z,9.50
2019-03-17T15:43:26.039Z,9.60
2019-03-17T15:48:31.788Z,10.00
2019-03-17T15:53:37.305Z,10.30
2019-03-17T15:58:42.821Z,10.30
2019-03-17T16:03:48.718Z,10.10
2019-03-17T16:08:54.240Z,9.90
2019-03-17T16:13:59.725Z,9.70
2019-03-17T16:19:05.291Z,9.50
2019-03-17T16:24:10.924Z,9.40
2019-03-17T16:29:16.490Z,9.30
2019-03-17T16:34:22.017Z,9.20
2019-03-17T16:39:27.615Z,9.10
2019-03-17T16:44:33.109Z,9.00
2019-03-17T16:49:38.849Z,8.90
2019-03-17T16:54:44.358Z,9.00
2019-03-17T16:59:49.866Z,9.00
2019-03-17T17:04:55.443Z,9.00
2019-03-17T17:10:00.919Z,9.00
2019-03-17T17:15:10.506Z,8.90
2019-03-17T17:20:18.816Z,8.60
2019-03-17T17:25:24.346Z,8.40
2019-03-17T17:30:30.015Z,8.20
2019-03-17T17:35:36.534Z,8.00
2019-03-17T17:40:42.078Z,8.00
2019-03-17T17:45:47.613Z,7.90
2019-03-17T17:50:53.247Z,7.80
2019-03-17T17:55:58.861Z,7.80
2019-03-17T18:01:04.474Z,7.70
2019-03-17T18:06:09.953Z,7.70
2019-03-17T18:11:15.493Z,7.60
2019-03-17T18:16:20.968Z,7.60
2019-03-17T18:21:26.490Z,7.60
2019-03-17T18:26:32.026Z,7.40
2019-03-17T18:31:37.535Z,6.90
2019-03-17T18:36:43.058Z,6.60
2019-03-17T18:41:48.596Z,6.30
2019-03-17T18:46:54.149Z,6.10
2019-03-17T18:51:59.672Z,6.00
2019-03-17T18:57:05.124Z,6.00
2019-03-17T19:02:10.601Z,6.00
2019-03-17T19:07:16.190Z,5.90
2019-03-17T19:12:21.644Z,5.80
2019-03-17T19:17:27.123Z,5.90
2019-03-17T19:22:36.315Z,5.90
2019-03-17T19:27:41.962Z,5.80
2019-03-17T19:32:47.459Z,5.70
2019-03-17T19:37:53.036Z,5.60
2019-03-17T19:42:59.835Z,5.50
2019-03-17T19:48:07.110Z,5.30
2019-03-17T19:53:14.681Z,5.20
2019-03-17T19:58:20.182Z,5.00
2019-03-17T20:03:25.660Z,4.90
2019-03-17T20:08:31.352Z,4.80
2019-03-17T20:13:36.860Z,4.60
2019-03-17T20:18:42.313Z,4.50
2019-03-17T20:23:47.839Z,4.40
2019-03-17T20:28:53.347Z,4.30
2019-03-17T20:33:58.987Z,4.20
2019-03-17T20:39:05.757Z,4.20
2019-03-17T20:44:11.353Z,4.10
2019-03-17T20:49:17.056Z,4.00
2019-03-17T20:54:22.617Z,4.00
2019-03-17T20:59:28.164Z,4.00
2019-03-17T21:04:33.783Z,4.00
2019-03-17T21:09:39.280Z,3.90
2019-03-17T21:14:44.783Z,3.90
2019-03-17T21:19:50.287Z,3.90
2019-03-17T21:24:55.759Z,3.90
2019-03-17T21:30:01.233Z,3.90
2019-03-17T21:35:06.863Z,3.90
2019-03-17T21:40:12.441Z,4.00
2019-03-17T21:45:17.983Z,4.10
2019-03-17T21:50:23.472Z,4.20
2019-03-17T21:55:31.105Z,4.50
2019-03-17T22:00:36.626Z,4.60
2019-03-17T22:05:42.089Z,4.90
2019-03-17T22:10:48.200Z,5.00
2019-03-17T22:15:53.741Z,5.20
2019-03-17T22:20:59.322Z,5.30
2019-03-17T22:26:05.278Z,5.40
2019-03-17T22:31:10.863Z,5.20
2019-03-17T22:36:16.378Z,5.10
2019-03-17T22:41:21.841Z,5.00
2019-03-17T22:46:27.355Z,4.90
2019-03-17T22:51:32.903Z,4.60
2019-03-17T22:56:38.502Z,4.50
2019-03-17T23:01:44.020Z,4.30
2019-03-17T23:06:49.598Z,4.20
2019-03-17T23:11:55.077Z,4.10
2019-03-17T23:17:00.634Z,4.00
2019-03-17T23:22:06.115Z,4.00
2019-03-17T23:27:11.656Z,4.10
2019-03-17T23:32:17.177Z,4.20
2019-03-17T23:37:22.708Z,4.30
2019-03-17T23:42:28.201Z,4.40
2019-03-17T23:47:33.767Z,4.30
2019-03-17T23:52:39.224Z,4.30
2019-03-17T23:57:47.052Z,4.40
